Latest Weather Observations for Laverton

IDW60801

Issued at 3:05 pm WST Thursday 28 August 2014 (issued every 30 minutes, with the page automatically refreshed every 10 minutes)

About weather observations | Map of weather stations | Latest weather observations for WA | Other Formats
Station Details ID: 012305 Name: LAVERTON AERO Lat: -28.61 Lon: 122.42 Height: 464.3 m
Data from the previous 72 hours. | See also: Recent months at Laverton
Date/Time
WST
Temp
°C
App
Temp
°C
Dew
Point
Rel
Hum
%
Delta-T
°C
Wind Press
QNH
hPa
Press
MSL
hPa
Rain
since 9 am
mm
Dir
 
Spd
km/h
Gust
km/h
Spd
kts
Gust
kts
28/03:00pm 29.6 22.9 -8.1 8 15.9 NW 20 33 11 18 1017.8 1017.3 0.0
28/02:30pm 29.8 23.0 -9.7 7 16.2 NNW 20 33 11 18 1017.9 1017.4 0.0
28/02:00pm 29.5 23.0 -8.2 8 15.9 NW 19 30 10 16 1018.1 1017.6 0.0
28/01:30pm 30.0 22.9 -7.8 8 16.1 NNW 22 33 12 18 1018.2 1017.7 0.0
28/01:00pm 29.7 23.0 -8.0 8 16.0 N 20 28 11 15 1018.8 1018.2 0.0
28/12:30pm 29.5 22.8 -8.2 8 15.9 NNW 20 33 11 18 1019.2 1018.6 0.0
28/12:00pm 28.8 22.7 -7.2 9 15.3 N 17 33 9 18 1019.7 1019.2 0.0
28/11:30am 28.2 21.5 -7.6 9 15.1 NNW 20 32 11 17 1020.1 1019.6 0.0
28/11:00am 29.0 23.0 -7.0 9 15.4 N 17 24 9 13 1020.5 1020.0 0.0
28/10:30am 27.9 21.3 -6.5 10 14.7 NNW 20 24 11 13 1020.8 1020.3 0.0
28/10:00am 27.4 21.4 -6.9 10 14.5 N 17 24 9 13 1021.1 1020.5 0.0
28/09:30am 26.4 20.8 -6.4 11 13.9 N 15 19 8 10 1021.3 1020.7 0.0
28/09:00am 24.7 19.1 -6.6 12 13.0 N 15 20 8 11 1021.6 1021.1 0.0
28/08:30am 24.2 18.2 -7.0 12 12.8 N 17 22 9 12 1021.4 1020.8 0.0
28/08:00am 22.9 16.9 -6.9 13 12.1 NE 17 24 9 13 1021.3 1020.7 0.0
28/07:30am 21.0 15.8 -6.6 15 11.1 ENE 13 19 7 10 1021.3 1020.7 0.0
28/07:27am 20.6 16.2 -6.1 16 10.8 ENE 9 19 5 10 1021.3 1020.7 0.0
28/07:00am 15.6 12.6 -5.4 23 8.1 NNW 2 6 1 3 1021.2 1020.6 0.0
28/06:30am 13.8 10.0 -5.3 26 7.3 ENE 6 9 3 5 1020.9 1020.4 0.0
28/06:00am 11.6 6.1 -5.4 30 6.3 ENE 15 17 8 9 1020.6 1020.1 0.0
28/05:30am 11.9 7.2 -5.1 30 6.4 E 11 13 6 7 1020.4 1019.9 0.0
28/05:00am 12.7 7.3 -4.9 29 6.7 E 15 17 8 9 1020.2 1019.7 0.0
28/04:30am 13.5 8.1 -4.6 28 7.0 E 15 15 8 8 1020.1 1019.6 0.0
28/04:00am 15.0 9.6 -4.8 25 7.7 E 15 15 8 8 1020.0 1019.5 0.0
28/03:30am 15.3 10.3 -4.6 25 7.8 ENE 13 17 7 9 1019.9 1019.4 0.0
28/03:00am 15.4 10.4 -4.5 25 7.8 ENE 13 15 7 8 1019.7 1019.2 0.0
28/02:30am 15.8 10.8 -4.7 24 8.1 ENE 13 15 7 8 1020.0 1019.5 0.0
28/02:00am 14.4 9.8 -4.3 27 7.3 ENE 11 15 6 8 1020.3 1019.8 0.0
28/01:30am 14.3 9.3 -4.4 27 7.3 ENE 13 15 7 8 1020.6 1020.1 0.0
28/01:00am 12.8 8.1 -4.8 29 6.7 ENE 11 13 6 7 1021.1 1020.5 0.0
28/12:30am 13.5 8.6 -3.4 31 6.7 E 13 15 7 8 1021.3 1020.7 0.0
28/12:00am 14.2 10.1 -3.2 30 7.0 E 9 11 5 6 1021.5 1021.0 0.0
 
Date/Time
WST
Temp
°C
App
Temp
°C
Dew
Point
Rel
Hum
%
Delta-T
°C
Wind Press
QNH
hPa
Press
MSL
hPa
Rain
since 9 am
mm
Dir
 
Spd
km/h
Gust
km/h
Spd
kts
Gust
kts
27/11:30pm 14.6 10.0 -4.2 27 7.4 ENE 11 13 6 7 1021.4 1020.8 0.0
27/11:00pm 15.3 10.3 -4.1 26 7.7 ENE 13 13 7 7 1021.6 1021.1 0.0
27/10:30pm 16.0 11.7 -4.5 24 8.2 ENE 9 13 5 7 1021.5 1021.0 0.0
27/10:00pm 16.1 10.3 -4.4 24 8.1 ENE 17 17 9 9 1021.5 1021.0 0.0
27/09:30pm 15.9 11.7 -4.1 25 8.0 ENE 9 13 5 7 1021.5 1021.0 0.0
27/09:00pm 16.7 11.7 -4.5 23 8.5 ENE 13 15 7 8 1021.6 1021.1 0.0
27/08:30pm 17.3 12.6 -4.6 22 8.8 NE 11 15 6 8 1021.7 1021.2 0.0
27/08:00pm 18.2 13.2 -4.5 21 9.2 NE 13 15 7 8 1021.7 1021.2 0.0
27/07:30pm 19.1 13.3 -5.0 19 9.8 ENE 17 19 9 10 1021.5 1021.0 0.0
27/07:00pm 19.7 15.4 -4.5 19 10.0 N 9 9 5 5 1021.2 1020.6 0.0
27/06:30pm 21.4 17.6 -5.4 16 11.0 N 6 7 3 4 1021.1 1020.5 0.0
27/06:00pm 24.3 20.3 -5.8 13 12.6 N 7 9 4 5 1020.6 1020.1 0.0
27/05:30pm 26.1 21.6 -6.6 11 13.8 N 9 15 5 8 1020.2 1019.7 0.0
27/05:00pm 27.7 22.8 -6.6 10 14.6 NNW 11 15 6 8 1020.0 1019.5 0.0
27/04:30pm 28.3 23.0 -7.6 9 15.1 NNE 13 17 7 9 1020.0 1019.5 0.0
27/04:00pm 28.5 21.9 -7.4 9 15.2 NNW 20 28 11 15 1019.9 1019.4 0.0
27/03:30pm 28.9 22.9 -7.1 9 15.4 NNW 17 22 9 12 1019.9 1019.4 0.0
27/03:00pm 29.5 25.0 -6.7 9 15.6 N 9 17 5 9 1020.0 1019.5 0.0
27/02:30pm 29.1 23.8 -7.0 9 15.5 N 13 22 7 12 1020.2 1019.7 0.0
27/02:00pm 29.2 22.8 -6.9 9 15.5 ENE 19 30 10 16 1020.2 1019.7 0.0
27/01:30pm 29.2 21.8 -6.9 9 15.5 NE 24 28 13 15 1020.5 1020.0 0.0
27/01:00pm 29.2 22.8 -6.9 9 15.5 NNE 19 32 10 17 1020.8 1020.3 0.0
27/12:30pm 28.6 22.2 -7.3 9 15.3 NNE 19 30 10 16 1021.4 1020.8 0.0
27/12:00pm 28.7 22.8 -5.9 10 15.0 NNE 17 30 9 16 1021.8 1021.3 0.0
27/11:30am 28.4 21.6 -4.9 11 14.7 NE 22 26 12 14 1022.3 1021.8 0.0
27/11:00am 27.8 20.6 -5.3 11 14.4 N 24 37 13 20 1022.9 1022.4 0.0
27/10:30am 26.9 19.6 -6.0 11 14.1 NNE 24 32 13 17 1023.5 1023.0 0.0
27/10:00am 25.7 18.9 -4.7 13 13.1 NNE 22 28 12 15 1023.9 1023.4 0.0
27/09:30am 24.7 19.1 -2.8 16 12.3 NE 17 24 9 13 1023.9 1023.4 0.0
27/09:00am 22.1 16.8 -0.6 22 10.3 ENE 17 20 9 11 1023.9 1023.4 0.0
27/08:30am 19.6 14.1 0.6 28 8.7 E 19 24 10 13 1023.7 1023.2 0.0
27/08:00am 17.3 11.2 0.5 32 7.5 E 22 30 12 16 1023.5 1023.0 0.0
27/07:30am 15.7 10.1 1.1 37 6.5 E 20 24 11 13 1023.2 1022.7 0.0
27/07:00am 13.2 7.7 0.9 43 5.3 E 19 22 10 12 1022.9 1022.4 0.0
27/06:30am 12.0 7.2 0.1 44 5.0 E 15 19 8 10 1022.7 1022.2 0.0
27/06:00am 12.7 7.1 -0.2 41 5.4 E 19 24 10 13 1022.3 1021.8 0.0
27/05:30am 13.1 7.7 -1.2 37 5.9 E 17 20 9 11 1022.2 1021.7 0.0
27/05:00am 12.7 7.5 -3.1 33 6.2 E 15 17 8 9 1021.9 1021.4 0.0
27/04:30am 13.9 8.6 -3.4 30 6.9 ESE 15 19 8 10 1021.7 1021.2 0.0
27/04:00am 13.6 8.6 -4.1 29 6.9 SE 13 17 7 9 1021.4 1020.8 0.0
27/03:30am 14.8 11.2 -4.0 27 7.5 E 6 13 3 7 1021.4 1020.8 0.0
27/03:00am 13.4 9.2 -4.2 29 6.8 S 9 13 5 7 1021.2 1020.6 0.0
27/02:30am 13.1 9.3 -4.1 30 6.7 W 7 11 4 6 1021.3 1020.7 0.0
27/02:00am 13.2 8.9 -4.9 28 6.9 ENE 9 11 5 6 1021.2 1020.6 0.0
27/01:30am 14.9 11.2 -4.4 26 7.6 NE 6 9 3 5 1021.2 1020.6 0.0
27/01:00am 15.1 11.4 -4.2 26 7.6 ENE 6 7 3 4 1021.4 1020.8 0.0
27/12:30am 14.9 11.2 -4.4 26 7.6 NE 6 9 3 5 1021.5 1021.0 0.0
27/12:00am 14.8 10.5 -4.5 26 7.5 ENE 9 13 5 7 1021.8 1021.3 0.0
 
Date/Time
WST
Temp
°C
App
Temp
°C
Dew
Point
Rel
Hum
%
Delta-T
°C
Wind Press
QNH
hPa
Press
MSL
hPa
Rain
since 9 am
mm
Dir
 
Spd
km/h
Gust
km/h
Spd
kts
Gust
kts
26/11:30pm 14.8 10.2 -4.5 26 7.6 ENE 11 15 6 8 1021.7 1021.2 0.0
26/11:00pm 15.4 10.8 -4.5 25 7.8 ENE 11 13 6 7 1021.7 1021.2 0.0
26/10:30pm 16.2 11.6 -4.4 24 8.2 ENE 11 15 6 8 1021.8 1021.3 0.0
26/10:00pm 16.7 11.3 -4.5 23 8.5 ENE 15 17 8 9 1021.9 1021.4 0.0
26/09:30pm 16.6 11.6 -4.6 23 8.5 ENE 13 17 7 9 1022.0 1021.5 0.0
26/09:00pm 16.3 11.7 -3.7 25 8.1 E 11 17 6 9 1022.0 1021.5 0.0
26/08:30pm 17.5 13.8 -3.3 24 8.6 E 7 13 4 7 1021.9 1021.4 0.0
26/08:00pm 18.3 14.2 -3.2 23 9.0 E 9 15 5 8 1022.0 1021.5 0.0
26/07:30pm 18.7 15.1 -3.4 22 9.2 ENE 6 9 3 5 1021.8 1021.3 0.0
26/07:00pm 19.5 17.0 -4.0 20 9.7 CALM 0 0 0 0 1021.6 1021.1 0.0
26/06:30pm 22.1 19.6 -4.1 17 11.1 CALM 0 0 0 0 1021.4 1020.8 0.0
26/06:00pm 23.9 21.4 -4.3 15 12.1 CALM 0 0 0 0 1021.2 1020.6 0.0
26/05:30pm 26.3 23.2 -6.5 11 13.9 NNW 2 7 1 4 1020.9 1020.4 0.0
26/05:00pm 28.0 23.9 -6.4 10 14.7 SW 7 17 4 9 1020.7 1020.2 0.0
26/04:30pm 28.4 23.2 -6.1 10 15.0 SW 13 17 7 9 1020.6 1020.1 0.0
26/04:00pm 29.1 24.6 -7.0 9 15.4 NW 9 17 5 9 1020.6 1020.1 0.0
26/03:30pm 28.8 23.5 -7.2 9 15.4 WSW 13 20 7 11 1020.6 1020.1 0.0
26/03:00pm 28.9 25.7 -7.1 9 15.4 ESE 2 11 1 6 1020.7 1020.2 0.0
26/02:30pm 29.0 24.9 -7.0 9 15.4 N 7 22 4 12 1020.8 1020.3 0.0
26/02:00pm 29.8 25.3 -6.4 9 15.7 NNW 9 15 5 8 1021.1 1020.5 0.0
26/01:30pm 29.5 25.4 -6.7 9 15.7 WNW 7 11 4 6 1021.3 1020.7 0.0
26/01:00pm 28.8 23.1 -7.2 9 15.3 W 15 19 8 10 1021.6 1021.1 0.0
26/12:30pm 28.5 24.1 -6.0 10 15.0 N 9 17 5 9 1022.1 1021.6 0.0
26/12:00pm 28.8 24.0 -5.8 10 15.1 NNW 11 15 6 8 1022.6 1022.1 0.0
26/11:30am 28.4 21.9 -6.1 10 15.0 WNW 20 28 11 15 1023.0 1022.5 0.0
26/11:00am 27.9 21.9 -6.5 10 14.7 NNW 17 30 9 16 1023.6 1023.1 0.0
26/10:30am 28.0 21.6 -5.2 11 14.6 NNW 20 32 11 17 1024.0 1023.5 0.0
26/10:00am 27.4 21.1 -5.6 11 14.2 NNW 19 30 10 16 1024.3 1023.8 0.0
26/09:30am 26.8 20.0 -4.9 12 13.8 N 22 30 12 16 1024.4 1023.9 0.0
26/09:00am 26.0 19.3 -4.5 13 13.3 N 22 28 12 15 1024.5 1024.0 0.0
26/08:30am 24.9 18.7 -3.5 15 12.5 N 20 33 11 18 1024.7 1024.2 0.0
26/08:00am 22.8 16.7 -3.5 17 11.3 N 19 24 10 13 1024.5 1024.0 0.0
26/07:30am 21.5 15.4 -3.8 18 10.8 N 19 24 10 13 1024.3 1023.8 0.0
26/07:00am 18.8 13.5 -3.3 22 9.2 NNE 15 20 8 11 1024.1 1023.6 0.0
26/06:30am 16.6 11.3 -3.5 25 8.2 NNE 15 19 8 10 1023.9 1023.4 0.0
26/06:00am 14.7 9.9 -2.7 30 7.1 N 13 15 7 8 1023.7 1023.2 0.0
26/05:30am 10.7 8.4 -2.0 41 5.1 CALM 0 0 0 0 1023.4 1022.9 0.0
26/05:00am 11.3 9.0 -2.1 39 5.3 CALM 0 0 0 0 1023.2 1022.7 0.0
26/04:30am 12.0 9.7 -2.2 37 5.7 CALM 0 0 0 0 1023.0 1022.5 0.0
26/04:00am 12.3 10.0 -2.0 37 5.8 CALM 0 6 0 3 1022.9 1022.4 0.0
26/03:30am 12.8 10.5 -2.3 35 6.1 CALM 0 0 0 0 1022.8 1022.3 0.0
26/03:00am 13.5 9.4 -2.8 32 6.5 NNE 9 11 5 6 1022.8 1022.3 0.0
26/02:30am 13.9 9.8 -2.9 31 6.8 N 9 11 5 6 1023.0 1022.5 0.0
26/02:00am 15.0 10.2 -2.4 30 7.1 NW 13 15 7 8 1023.2 1022.7 0.0
26/01:30am 18.3 13.9 -2.6 24 8.8 N 11 15 6 8 1023.1 1022.6 0.0
26/01:00am 19.1 13.9 -2.5 23 9.2 NNE 15 19 8 10 1023.1 1022.6 0.0
26/12:30am 15.5 11.5 -2.0 30 7.3 N 9 13 5 7 1023.5 1023.0 0.0
26/12:00am 15.1 12.5 -1.5 32 6.9 NE 2 6 1 3 1023.5 1023.0 0.0
 
Date/Time
WST
Temp
°C
App
Temp
°C
Dew
Point
Rel
Hum
%
Delta-T
°C
Wind Press
QNH
hPa
Press
MSL
hPa
Rain
since 9 am
mm
Dir
 
Spd
km/h
Gust
km/h
Spd
kts
Gust
kts
25/11:30pm 15.1 11.5 -2.3 30 7.2 ENE 7 9 4 5 1023.5 1023.0 0.0
25/11:00pm 15.4 11.0 -2.5 29 7.3 E 11 13 6 7 1023.8 1023.3 0.0
25/10:30pm 15.8 11.4 -2.2 29 7.5 E 11 11 6 6 1024.0 1023.5 0.0
25/10:00pm 17.1 14.0 -2.5 26 8.2 NE 4 7 2 4 1024.3 1023.8 0.0
25/09:30pm 18.4 14.4 -2.5 24 8.9 NE 9 11 5 6 1024.4 1023.9 0.0
25/09:00pm 20.1 15.3 -2.9 21 9.8 NNE 13 15 7 8 1024.6 1024.1 0.0
25/08:30pm 20.3 15.9 -2.7 21 9.9 NNE 11 13 6 7 1024.7 1024.2 0.0
25/08:00pm 20.7 16.2 -3.0 20 10.1 NNE 11 13 6 7 1024.5 1024.0 0.0
25/07:30pm 22.2 17.3 -3.2 18 11.0 NE 13 15 7 8 1024.2 1023.7 0.0
25/07:00pm 22.8 17.9 -3.5 17 11.3 NE 13 17 7 9 1023.9 1023.4 0.0
25/06:30pm 23.1 18.1 -4.1 16 11.7 NE 13 15 7 8 1023.6 1023.1 0.0
25/06:00pm 24.0 19.4 -4.2 15 12.1 NE 11 13 6 7 1023.4 1022.9 0.0
25/05:30pm 26.3 21.3 -4.3 13 13.5 NE 13 19 7 10 1023.1 1022.6 0.0
25/05:00pm 27.9 21.1 -5.2 11 14.5 NNE 22 35 12 19 1022.8 1022.3 0.0
25/04:30pm 29.0 24.4 -4.4 11 15.0 NNE 11 19 6 10 1022.6 1022.1 0.0
25/04:00pm 28.9 23.7 -5.7 10 15.1 ESE 13 17 7 9 1022.6 1022.1 0.0
25/03:30pm 29.5 24.4 -5.3 10 15.4 NNW 13 20 7 11 1022.7 1022.2 0.0

Other Formats:

Comma delimited format used in spreadsheet applications
http://www.bom.gov.au/fwo/IDW60801/IDW60801.94449.axf

JavaScript Object Notation format (JSON) in row-major order
http://www.bom.gov.au/fwo/IDW60801/IDW60801.94449.json